Weather at Kophinou Highway Strip

Public forecast

Using degrees Celsius for public forecast. Weather courtesy of forecast.io.

Closest aviation weather report (METAR) to Kophinou Highway Strip

Closest report is Larnaca International Airport, 10.1 nm (18.7 km) ENE.

2024/06/22 08:30 (retrieved 37 minutes ago)

LCLK 220830Z 19013KT 9999 FEW025TCU 31/22 Q1003 NOSIG

Closest aviation forecast (TAF) to Kophinou Highway Strip

Closest forecast is Larnaca International Airport, 10.1 nm (18.7 km) ENE.

2024/06/22 06:36 (retrieved 3 hours ago)

TAF TAF LCLK 220530Z 2206/2306 27006KT 9999 FEW015 BECMG 2206/2210 21016KT BECMG 2216/2220 27006KT PROB30 2222/2306 5000 BR BKN007 PROB30 TEMPO 2300/2306 0800 BCFG BKN001